sensor_id;sensor_type;location;lat;lon;timestamp;P1;durP1;ratioP1;P2;durP2;ratioP2
72761;SDS011;60886;55.034;73.150;2022-09-01T00:02:23;23.63;;;10.13;;
72761;SDS011;60886;55.034;73.150;2022-09-01T00:04:51;31.23;;;12.77;;
72761;SDS011;60886;55.034;73.150;2022-09-01T00:07:26;26.48;;;10.23;;
72761;SDS011;60886;55.034;73.150;2022-09-01T00:09:54;22.83;;;9.73;;
72761;SDS011;60886;55.034;73.150;2022-09-01T00:12:22;23.73;;;9.93;;
72761;SDS011;60886;55.034;73.150;2022-09-01T00:14:50;24.40;;;10.35;;
72761;SDS011;60886;55.034;73.150;2022-09-01T00:17:17;27.63;;;10.50;;
72761;SDS011;60886;55.034;73.150;2022-09-01T00:19:53;25.50;;;11.10;;
72761;SDS011;60886;55.034;73.150;2022-09-01T00:22:30;23.07;;;10.77;;
72761;SDS011;60886;55.034;73.150;2022-09-01T00:24:58;20.58;;;10.32;;
72761;SDS011;60886;55.034;73.150;2022-09-01T00:27:26;22.90;;;10.43;;
72761;SDS011;60886;55.034;73.150;2022-09-01T00:29:52;24.90;;;10.60;;
72761;SDS011;60886;55.034;73.150;2022-09-01T00:32:19;26.25;;;12.07;;
72761;SDS011;60886;55.034;73.150;2022-09-01T00:34:46;74.27;;;33.30;;
72761;SDS011;60886;55.034;73.150;2022-09-01T00:37:13;30.70;;;12.63;;
72761;SDS011;60886;55.034;73.150;2022-09-01T00:39:39;22.80;;;10.98;;
72761;SDS011;60886;55.034;73.150;2022-09-01T00:42:05;30.83;;;16.73;;
72761;SDS011;60886;55.034;73.150;2022-09-01T00:44:32;22.77;;;10.25;;
72761;SDS011;60886;55.034;73.150;2022-09-01T00:47:03;22.33;;;9.27;;
72761;SDS011;60886;55.034;73.150;2022-09-01T00:49:45;21.55;;;9.35;;
72761;SDS011;60886;55.034;73.150;2022-09-01T00:52:21;26.00;;;9.43;;
72761;SDS011;60886;55.034;73.150;2022-09-01T00:54:57;20.27;;;8.68;;
72761;SDS011;60886;55.034;73.150;2022-09-01T00:57:28;21.77;;;8.80;;
72761;SDS011;60886;55.034;73.150;2022-09-01T01:00:38;18.87;;;8.83;;
72761;SDS011;60886;55.034;73.150;2022-09-01T01:02:56;29.45;;;14.35;;
72761;SDS011;60886;55.034;73.150;2022-09-01T01:05:28;24.13;;;9.52;;
72761;SDS011;60886;55.034;73.150;2022-09-01T01:08:03;23.88;;;8.68;;
72761;SDS011;60886;55.034;73.150;2022-09-01T01:10:38;23.63;;;10.10;;
72761;SDS011;60886;55.034;73.150;2022-09-01T01:13:12;22.43;;;8.90;;
72761;SDS011;60886;55.034;73.150;2022-09-01T01:15:41;22.95;;;9.15;;
72761;SDS011;60886;55.034;73.150;2022-09-01T01:18:10;22.88;;;8.73;;
72761;SDS011;60886;55.034;73.150;2022-09-01T01:20:41;26.17;;;9.27;;
72761;SDS011;60886;55.034;73.150;2022-09-01T01:23:44;22.73;;;9.40;;
72761;SDS011;60886;55.034;73.150;2022-09-01T01:26:25;22.83;;;9.10;;
72761;SDS011;60886;55.034;73.150;2022-09-01T01:28:52;24.42;;;8.75;;
72761;SDS011;60886;55.034;73.150;2022-09-01T01:31:20;24.17;;;8.73;;
72761;SDS011;60886;55.034;73.150;2022-09-01T01:33:49;24.98;;;8.48;;
72761;SDS011;60886;55.034;73.150;2022-09-01T01:36:20;23.10;;;10.02;;
72761;SDS011;60886;55.034;73.150;2022-09-01T01:38:59;28.87;;;11.40;;
72761;SDS011;60886;55.034;73.150;2022-09-01T01:41:30;20.13;;;9.50;;
72761;SDS011;60886;55.034;73.150;2022-09-01T01:43:59;20.15;;;8.10;;
72761;SDS011;60886;55.034;73.150;2022-09-01T01:46:42;17.95;;;8.50;;
72761;SDS011;60886;55.034;73.150;2022-09-01T01:49:16;21.17;;;8.68;;
72761;SDS011;60886;55.034;73.150;2022-09-01T01:51:57;22.23;;;8.10;;
72761;SDS011;60886;55.034;73.150;2022-09-01T01:54:28;20.25;;;7.97;;
72761;SDS011;60886;55.034;73.150;2022-09-01T01:56:58;16.52;;;7.75;;
72761;SDS011;60886;55.034;73.150;2022-09-01T01:59:25;28.20;;;8.40;;
72761;SDS011;60886;55.034;73.150;2022-09-01T02:01:59;21.00;;;8.43;;
72761;SDS011;60886;55.034;73.150;2022-09-01T02:04:29;24.53;;;8.43;;
72761;SDS011;60886;55.034;73.150;2022-09-01T02:07:04;21.25;;;8.55;;
72761;SDS011;60886;55.034;73.150;2022-09-01T02:09:36;24.42;;;8.20;;
72761;SDS011;60886;55.034;73.150;2022-09-01T02:12:07;21.63;;;8.32;;
72761;SDS011;60886;55.034;73.150;2022-09-01T02:14:39;18.25;;;8.18;;
72761;SDS011;60886;55.034;73.150;2022-09-01T02:17:05;23.43;;;8.33;;
72761;SDS011;60886;55.034;73.150;2022-09-01T02:19:38;19.40;;;7.80;;
72761;SDS011;60886;55.034;73.150;2022-09-01T02:22:08;19.13;;;8.35;;
72761;SDS011;60886;55.034;73.150;2022-09-01T02:24:37;24.77;;;8.32;;
72761;SDS011;60886;55.034;73.150;2022-09-01T02:27:15;20.98;;;8.38;;
72761;SDS011;60886;55.034;73.150;2022-09-01T02:29:44;19.43;;;8.00;;
72761;SDS011;60886;55.034;73.150;2022-09-01T02:32:21;19.73;;;8.38;;
72761;SDS011;60886;55.034;73.150;2022-09-01T02:34:56;21.63;;;8.10;;
72761;SDS011;60886;55.034;73.150;2022-09-01T02:37:37;18.92;;;8.10;;
72761;SDS011;60886;55.034;73.150;2022-09-01T02:40:06;16.55;;;8.15;;
72761;SDS011;60886;55.034;73.150;2022-09-01T02:42:35;17.53;;;7.00;;
72761;SDS011;60886;55.034;73.150;2022-09-01T02:45:17;16.50;;;7.18;;
72761;SDS011;60886;55.034;73.150;2022-09-01T02:47:50;20.52;;;6.75;;
72761;SDS011;60886;55.034;73.150;2022-09-01T02:50:24;14.70;;;6.57;;
72761;SDS011;60886;55.034;73.150;2022-09-01T02:53:02;16.48;;;7.18;;
72761;SDS011;60886;55.034;73.150;2022-09-01T02:55:36;15.77;;;6.87;;
72761;SDS011;60886;55.034;73.150;2022-09-01T02:58:06;16.90;;;6.55;;
72761;SDS011;60886;55.034;73.150;2022-09-01T03:00:35;18.30;;;6.82;;
72761;SDS011;60886;55.034;73.150;2022-09-01T03:03:10;17.17;;;6.97;;
72761;SDS011;60886;55.034;73.150;2022-09-01T03:05:49;14.93;;;6.60;;
72761;SDS011;60886;55.034;73.150;2022-09-01T03:08:22;18.70;;;7.43;;
72761;SDS011;60886;55.034;73.150;2022-09-01T03:10:50;20.13;;;7.53;;
72761;SDS011;60886;55.034;73.150;2022-09-01T03:13:21;17.60;;;7.45;;
72761;SDS011;60886;55.034;73.150;2022-09-01T03:16:02;18.85;;;6.80;;
72761;SDS011;60886;55.034;73.150;2022-09-01T03:18:30;19.23;;;7.53;;
72761;SDS011;60886;55.034;73.150;2022-09-01T03:21:10;17.53;;;7.37;;
72761;SDS011;60886;55.034;73.150;2022-09-01T03:23:48;16.80;;;7.50;;
72761;SDS011;60886;55.034;73.150;2022-09-01T03:26:17;21.13;;;7.60;;
72761;SDS011;60886;55.034;73.150;2022-09-01T03:28:45;14.10;;;6.75;;
72761;SDS011;60886;55.034;73.150;2022-09-01T03:31:13;15.35;;;7.00;;
72761;SDS011;60886;55.034;73.150;2022-09-01T03:33:40;17.67;;;7.40;;
72761;SDS011;60886;55.034;73.150;2022-09-01T03:36:23;16.80;;;7.55;;
72761;SDS011;60886;55.034;73.150;2022-09-01T03:38:51;18.52;;;7.57;;
72761;SDS011;60886;55.034;73.150;2022-09-01T03:41:22;18.88;;;7.22;;
72761;SDS011;60886;55.034;73.150;2022-09-01T03:43:54;15.88;;;7.53;;
72761;SDS011;60886;55.034;73.150;2022-09-01T03:46:23;16.90;;;7.10;;
72761;SDS011;60886;55.034;73.150;2022-09-01T03:48:57;17.02;;;7.38;;
72761;SDS011;60886;55.034;73.150;2022-09-01T03:51:38;15.25;;;7.40;;
72761;SDS011;60886;55.034;73.150;2022-09-01T03:54:15;18.58;;;7.35;;
72761;SDS011;60886;55.034;73.150;2022-09-01T03:56:43;18.10;;;7.80;;
72761;SDS011;60886;55.034;73.150;2022-09-01T03:59:15;14.83;;;7.17;;
72761;SDS011;60886;55.034;73.150;2022-09-01T04:01:42;15.70;;;7.65;;
72761;SDS011;60886;55.034;73.150;2022-09-01T04:04:21;17.00;;;7.72;;
72761;SDS011;60886;55.034;73.150;2022-09-01T04:06:47;15.35;;;6.80;;
72761;SDS011;60886;55.034;73.150;2022-09-01T04:09:14;19.88;;;7.78;;
72761;SDS011;60886;55.034;73.150;2022-09-01T04:11:43;17.80;;;7.63;;
72761;SDS011;60886;55.034;73.150;2022-09-01T04:14:12;19.50;;;8.15;;
72761;SDS011;60886;55.034;73.150;2022-09-01T04:16:50;15.68;;;7.13;;
72761;SDS011;60886;55.034;73.150;2022-09-01T04:19:35;16.75;;;6.43;;
72761;SDS011;60886;55.034;73.150;2022-09-01T04:22:04;15.27;;;7.10;;
72761;SDS011;60886;55.034;73.150;2022-09-01T04:24:38;16.90;;;7.37;;
72761;SDS011;60886;55.034;73.150;2022-09-01T04:27:07;14.93;;;7.28;;
72761;SDS011;60886;55.034;73.150;2022-09-01T04:29:38;15.20;;;6.40;;
72761;SDS011;60886;55.034;73.150;2022-09-01T04:32:06;14.20;;;6.97;;
72761;SDS011;60886;55.034;73.150;2022-09-01T04:34:39;13.00;;;6.40;;
72761;SDS011;60886;55.034;73.150;2022-09-01T04:39:40;12.32;;;6.30;;
72761;SDS011;60886;55.034;73.150;2022-09-01T04:42:13;15.17;;;6.63;;
72761;SDS011;60886;55.034;73.150;2022-09-01T04:44:47;14.30;;;6.63;;
72761;SDS011;60886;55.034;73.150;2022-09-01T04:47:23;14.27;;;6.55;;
72761;SDS011;60886;55.034;73.150;2022-09-01T04:50:07;13.73;;;6.07;;
72761;SDS011;60886;55.034;73.150;2022-09-01T04:52:39;13.48;;;6.35;;
72761;SDS011;60886;55.034;73.150;2022-09-01T04:55:28;12.70;;;5.67;;
72761;SDS011;60886;55.034;73.150;2022-09-01T04:58:00;13.40;;;5.90;;
72761;SDS011;60886;55.034;73.150;2022-09-01T05:00:28;13.52;;;5.78;;
72761;SDS011;60886;55.034;73.150;2022-09-01T05:03:00;11.20;;;5.22;;
72761;SDS011;60886;55.034;73.150;2022-09-01T05:05:42;13.85;;;5.57;;
72761;SDS011;60886;55.034;73.150;2022-09-01T05:08:10;15.50;;;5.90;;
72761;SDS011;60886;55.034;73.150;2022-09-01T05:10:41;12.48;;;5.05;;
72761;SDS011;60886;55.034;73.150;2022-09-01T05:13:27;11.48;;;6.38;;
72761;SDS011;60886;55.034;73.150;2022-09-01T05:16:02;13.65;;;5.85;;
72761;SDS011;60886;55.034;73.150;2022-09-01T05:18:31;11.75;;;5.60;;
72761;SDS011;60886;55.034;73.150;2022-09-01T05:21:03;11.93;;;6.17;;
72761;SDS011;60886;55.034;73.150;2022-09-01T05:23:45;15.68;;;7.15;;
72761;SDS011;60886;55.034;73.150;2022-09-01T05:26:28;15.82;;;7.22;;
72761;SDS011;60886;55.034;73.150;2022-09-01T05:28:57;14.48;;;7.07;;
72761;SDS011;60886;55.034;73.150;2022-09-01T05:31:27;17.17;;;7.18;;
72761;SDS011;60886;55.034;73.150;2022-09-01T05:34:02;15.43;;;6.80;;
72761;SDS011;60886;55.034;73.150;2022-09-01T05:36:29;12.88;;;6.80;;
72761;SDS011;60886;55.034;73.150;2022-09-01T05:38:58;12.88;;;6.30;;
72761;SDS011;60886;55.034;73.150;2022-09-01T05:41:26;13.02;;;6.70;;
72761;SDS011;60886;55.034;73.150;2022-09-01T05:43:53;13.45;;;6.65;;
72761;SDS011;60886;55.034;73.150;2022-09-01T05:46:21;20.93;;;7.30;;
72761;SDS011;60886;55.034;73.150;2022-09-01T05:48:50;19.73;;;7.40;;
72761;SDS011;60886;55.034;73.150;2022-09-01T05:51:18;18.90;;;7.30;;
72761;SDS011;60886;55.034;73.150;2022-09-01T05:53:50;17.10;;;6.90;;
72761;SDS011;60886;55.034;73.150;2022-09-01T05:56:27;18.25;;;7.00;;
72761;SDS011;60886;55.034;73.150;2022-09-01T05:58:55;22.00;;;7.60;;
72761;SDS011;60886;55.034;73.150;2022-09-01T06:01:26;18.23;;;7.15;;
72761;SDS011;60886;55.034;73.150;2022-09-01T06:04:00;12.98;;;7.10;;
72761;SDS011;60886;55.034;73.150;2022-09-01T06:06:39;20.58;;;7.20;;
72761;SDS011;60886;55.034;73.150;2022-09-01T06:09:14;19.35;;;7.32;;
72761;SDS011;60886;55.034;73.150;2022-09-01T06:11:50;21.10;;;7.43;;
72761;SDS011;60886;55.034;73.150;2022-09-01T06:14:16;17.45;;;7.22;;
72761;SDS011;60886;55.034;73.150;2022-09-01T06:16:45;14.10;;;7.10;;
72761;SDS011;60886;55.034;73.150;2022-09-01T06:19:14;16.33;;;7.20;;
72761;SDS011;60886;55.034;73.150;2022-09-01T06:21:44;13.98;;;6.60;;
72761;SDS011;60886;55.034;73.150;2022-09-01T06:24:13;14.03;;;6.80;;
72761;SDS011;60886;55.034;73.150;2022-09-01T06:26:40;15.45;;;7.00;;
72761;SDS011;60886;55.034;73.150;2022-09-01T06:29:07;16.58;;;7.13;;
72761;SDS011;60886;55.034;73.150;2022-09-01T06:31:46;16.60;;;7.13;;
72761;SDS011;60886;55.034;73.150;2022-09-01T06:34:18;15.50;;;7.70;;
72761;SDS011;60886;55.034;73.150;2022-09-01T06:36:45;15.37;;;6.97;;
72761;SDS011;60886;55.034;73.150;2022-09-01T06:39:17;13.98;;;6.90;;
72761;SDS011;60886;55.034;73.150;2022-09-01T06:41:55;14.55;;;7.40;;
72761;SDS011;60886;55.034;73.150;2022-09-01T06:44:28;14.70;;;7.10;;
72761;SDS011;60886;55.034;73.150;2022-09-01T06:47:04;14.35;;;7.30;;
72761;SDS011;60886;55.034;73.150;2022-09-01T06:49:33;15.93;;;6.80;;
72761;SDS011;60886;55.034;73.150;2022-09-01T06:52:07;21.27;;;6.97;;
72761;SDS011;60886;55.034;73.150;2022-09-01T06:54:41;15.07;;;6.70;;
72761;SDS011;60886;55.034;73.150;2022-09-01T06:57:14;13.27;;;6.43;;
72761;SDS011;60886;55.034;73.150;2022-09-01T06:59:40;16.00;;;6.68;;
72761;SDS011;60886;55.034;73.150;2022-09-01T07:02:07;15.13;;;6.93;;
72761;SDS011;60886;55.034;73.150;2022-09-01T07:05:04;15.27;;;6.90;;
72761;SDS011;60886;55.034;73.150;2022-09-01T07:07:33;14.95;;;6.85;;
72761;SDS011;60886;55.034;73.150;2022-09-01T07:10:18;19.98;;;6.90;;
72761;SDS011;60886;55.034;73.150;2022-09-01T07:13:07;25.52;;;7.25;;
72761;SDS011;60886;55.034;73.150;2022-09-01T07:15:38;16.60;;;6.80;;
72761;SDS011;60886;55.034;73.150;2022-09-01T07:18:06;16.13;;;6.30;;
72761;SDS011;60886;55.034;73.150;2022-09-01T07:20:32;12.93;;;6.60;;
72761;SDS011;60886;55.034;73.150;2022-09-01T07:23:03;22.55;;;6.57;;
72761;SDS011;60886;55.034;73.150;2022-09-01T07:25:29;16.88;;;6.28;;
72761;SDS011;60886;55.034;73.150;2022-09-01T07:28:11;18.80;;;6.30;;
72761;SDS011;60886;55.034;73.150;2022-09-01T07:33:48;13.45;;;6.10;;
72761;SDS011;60886;55.034;73.150;2022-09-01T07:36:16;13.48;;;6.00;;
72761;SDS011;60886;55.034;73.150;2022-09-01T07:50:05;12.47;;;5.77;;
72761;SDS011;60886;55.034;73.150;2022-09-01T07:52:35;14.65;;;6.53;;
72761;SDS011;60886;55.034;73.150;2022-09-01T07:55:08;12.77;;;6.57;;
72761;SDS011;60886;55.034;73.150;2022-09-01T07:57:43;13.52;;;5.97;;
72761;SDS011;60886;55.034;73.150;2022-09-01T08:00:23;9.90;;;5.70;;
72761;SDS011;60886;55.034;73.150;2022-09-01T08:03:04;14.35;;;6.35;;
72761;SDS011;60886;55.034;73.150;2022-09-01T08:05:41;12.80;;;5.70;;
72761;SDS011;60886;55.034;73.150;2022-09-01T08:08:08;16.67;;;5.53;;
72761;SDS011;60886;55.034;73.150;2022-09-01T08:10:38;11.65;;;5.38;;
72761;SDS011;60886;55.034;73.150;2022-09-01T08:13:11;19.52;;;5.03;;
72761;SDS011;60886;55.034;73.150;2022-09-01T08:15:38;10.52;;;4.53;;
72761;SDS011;60886;55.034;73.150;2022-09-01T08:18:09;15.15;;;4.63;;
72761;SDS011;60886;55.034;73.150;2022-09-01T08:20:42;11.43;;;4.60;;
72761;SDS011;60886;55.034;73.150;2022-09-01T08:23:31;17.90;;;4.63;;
72761;SDS011;60886;55.034;73.150;2022-09-01T08:26:12;13.20;;;4.63;;
72761;SDS011;60886;55.034;73.150;2022-09-01T08:28:45;16.10;;;5.10;;
72761;SDS011;60886;55.034;73.150;2022-09-01T08:31:18;10.38;;;4.47;;
72761;SDS011;60886;55.034;73.150;2022-09-01T08:33:50;10.35;;;4.25;;
72761;SDS011;60886;55.034;73.150;2022-09-01T08:36:18;14.80;;;4.80;;
72761;SDS011;60886;55.034;73.150;2022-09-01T08:38:45;9.27;;;4.82;;
72761;SDS011;60886;55.034;73.150;2022-09-01T08:47:11;13.63;;;5.00;;
72761;SDS011;60886;55.034;73.150;2022-09-01T08:49:41;17.00;;;5.10;;
72761;SDS011;60886;55.034;73.150;2022-09-01T08:52:32;14.00;;;4.60;;
72761;SDS011;60886;55.034;73.150;2022-09-01T08:57:43;10.25;;;4.68;;
72761;SDS011;60886;55.034;73.150;2022-09-01T09:00:25;8.98;;;4.45;;
72761;SDS011;60886;55.034;73.150;2022-09-01T09:06:02;10.13;;;4.75;;
72761;SDS011;60886;55.034;73.150;2022-09-01T09:16:57;10.10;;;4.70;;
72761;SDS011;60886;55.034;73.150;2022-09-01T09:19:35;9.52;;;5.00;;
72761;SDS011;60886;55.034;73.150;2022-09-01T09:22:04;9.73;;;5.00;;
72761;SDS011;60886;55.034;73.150;2022-09-01T09:27:29;14.13;;;5.40;;
72761;SDS011;60886;55.034;73.150;2022-09-01T09:30:04;11.93;;;5.55;;
72761;SDS011;60886;55.034;73.150;2022-09-01T09:32:49;9.95;;;5.35;;
72761;SDS011;60886;55.034;73.150;2022-09-01T09:35:23;11.45;;;5.15;;
72761;SDS011;60886;55.034;73.150;2022-09-01T09:41:00;9.88;;;5.20;;
72761;SDS011;60886;55.034;73.150;2022-09-01T09:43:34;9.45;;;5.50;;
72761;SDS011;60886;55.034;73.150;2022-09-01T09:49:23;15.70;;;5.57;;
72761;SDS011;60886;55.034;73.150;2022-09-01T09:54:30;12.40;;;5.35;;
72761;SDS011;60886;55.034;73.150;2022-09-01T10:02:24;9.70;;;5.43;;
72761;SDS011;60886;55.034;73.150;2022-09-01T10:05:22;10.70;;;5.45;;
72761;SDS011;60886;55.034;73.150;2022-09-01T10:07:56;9.68;;;5.38;;
72761;SDS011;60886;55.034;73.150;2022-09-01T10:12:53;11.90;;;5.53;;
72761;SDS011;60886;55.034;73.150;2022-09-01T10:15:32;11.65;;;5.78;;
72761;SDS011;60886;55.034;73.150;2022-09-01T10:18:11;11.63;;;5.82;;
72761;SDS011;60886;55.034;73.150;2022-09-01T10:20:45;12.02;;;5.57;;
72761;SDS011;60886;55.034;73.150;2022-09-01T10:23:20;12.30;;;5.72;;
72761;SDS011;60886;55.034;73.150;2022-09-01T10:25:46;13.63;;;5.82;;
72761;SDS011;60886;55.034;73.150;2022-09-01T10:28:15;12.77;;;5.88;;
72761;SDS011;60886;55.034;73.150;2022-09-01T10:30:51;11.98;;;5.38;;
72761;SDS011;60886;55.034;73.150;2022-09-01T10:33:20;13.95;;;6.00;;
72761;SDS011;60886;55.034;73.150;2022-09-01T10:35:52;11.43;;;6.50;;
72761;SDS011;60886;55.034;73.150;2022-09-01T10:38:23;12.43;;;6.72;;
72761;SDS011;60886;55.034;73.150;2022-09-01T10:40:57;12.00;;;6.38;;
72761;SDS011;60886;55.034;73.150;2022-09-01T10:43:44;12.13;;;6.65;;
72761;SDS011;60886;55.034;73.150;2022-09-01T10:48:57;13.18;;;6.63;;
72761;SDS011;60886;55.034;73.150;2022-09-01T10:53:50;14.82;;;6.45;;
72761;SDS011;60886;55.034;73.150;2022-09-01T11:04:11;12.82;;;7.60;;
72761;SDS011;60886;55.034;73.150;2022-09-01T11:14:57;13.45;;;8.63;;
72761;SDS011;60886;55.034;73.150;2022-09-01T11:17:29;16.48;;;8.63;;
72761;SDS011;60886;55.034;73.150;2022-09-01T11:44:55;14.65;;;9.30;;
72761;SDS011;60886;55.034;73.150;2022-09-01T11:47:31;15.18;;;9.75;;
72761;SDS011;60886;55.034;73.150;2022-09-01T11:52:56;16.98;;;10.07;;
72761;SDS011;60886;55.034;73.150;2022-09-01T11:55:35;14.38;;;9.80;;
72761;SDS011;60886;55.034;73.150;2022-09-01T11:58:27;16.73;;;10.20;;
72761;SDS011;60886;55.034;73.150;2022-09-01T12:01:19;19.33;;;9.85;;
72761;SDS011;60886;55.034;73.150;2022-09-01T12:03:48;15.23;;;9.45;;
72761;SDS011;60886;55.034;73.150;2022-09-01T12:06:21;15.27;;;9.85;;
72761;SDS011;60886;55.034;73.150;2022-09-01T12:09:03;15.80;;;10.20;;
72761;SDS011;60886;55.034;73.150;2022-09-01T12:11:31;15.02;;;9.52;;
72761;SDS011;60886;55.034;73.150;2022-09-01T12:14:04;16.98;;;10.38;;
72761;SDS011;60886;55.034;73.150;2022-09-01T12:16:39;17.58;;;10.00;;
72761;SDS011;60886;55.034;73.150;2022-09-01T12:19:21;15.77;;;9.85;;
72761;SDS011;60886;55.034;73.150;2022-09-01T12:22:22;17.90;;;9.73;;
72761;SDS011;60886;55.034;73.150;2022-09-01T12:24:51;18.20;;;9.57;;
72761;SDS011;60886;55.034;73.150;2022-09-01T12:27:19;17.33;;;10.00;;
72761;SDS011;60886;55.034;73.150;2022-09-01T12:29:49;16.25;;;9.50;;
72761;SDS011;60886;55.034;73.150;2022-09-01T12:32:16;16.40;;;9.10;;
72761;SDS011;60886;55.034;73.150;2022-09-01T12:35:02;17.58;;;9.23;;
72761;SDS011;60886;55.034;73.150;2022-09-01T12:37:30;15.73;;;8.88;;
72761;SDS011;60886;55.034;73.150;2022-09-01T12:39:57;15.90;;;8.50;;
72761;SDS011;60886;55.034;73.150;2022-09-01T12:42:30;13.57;;;8.38;;
72761;SDS011;60886;55.034;73.150;2022-09-01T12:45:00;16.15;;;8.85;;
72761;SDS011;60886;55.034;73.150;2022-09-01T12:50:02;14.93;;;8.57;;
72761;SDS011;60886;55.034;73.150;2022-09-01T12:53:14;15.55;;;9.00;;
72761;SDS011;60886;55.034;73.150;2022-09-01T12:55:40;14.35;;;8.30;;
72761;SDS011;60886;55.034;73.150;2022-09-01T12:58:25;14.70;;;8.32;;
72761;SDS011;60886;55.034;73.150;2022-09-01T13:03:27;15.05;;;8.18;;
72761;SDS011;60886;55.034;73.150;2022-09-01T13:05:58;14.38;;;7.47;;
72761;SDS011;60886;55.034;73.150;2022-09-01T13:08:30;15.90;;;7.88;;
72761;SDS011;60886;55.034;73.150;2022-09-01T13:11:05;16.40;;;8.07;;
72761;SDS011;60886;55.034;73.150;2022-09-01T13:13:41;15.88;;;7.68;;
72761;SDS011;60886;55.034;73.150;2022-09-01T13:16:07;14.32;;;8.32;;
72761;SDS011;60886;55.034;73.150;2022-09-01T13:18:42;14.40;;;7.20;;
72761;SDS011;60886;55.034;73.150;2022-09-01T13:21:11;13.43;;;7.22;;
72761;SDS011;60886;55.034;73.150;2022-09-01T13:23:38;14.40;;;7.47;;
72761;SDS011;60886;55.034;73.150;2022-09-01T13:26:04;14.82;;;7.50;;
72761;SDS011;60886;55.034;73.150;2022-09-01T13:28:31;12.68;;;7.03;;
72761;SDS011;60886;55.034;73.150;2022-09-01T13:31:02;14.15;;;7.15;;
72761;SDS011;60886;55.034;73.150;2022-09-01T13:33:38;15.52;;;7.45;;
72761;SDS011;60886;55.034;73.150;2022-09-01T13:36:04;12.98;;;6.85;;
72761;SDS011;60886;55.034;73.150;2022-09-01T13:38:31;13.18;;;6.20;;
72761;SDS011;60886;55.034;73.150;2022-09-01T13:40:58;15.70;;;6.38;;
72761;SDS011;60886;55.034;73.150;2022-09-01T13:43:26;15.95;;;8.45;;
72761;SDS011;60886;55.034;73.150;2022-09-01T13:45:53;14.93;;;7.00;;
72761;SDS011;60886;55.034;73.150;2022-09-01T13:48:20;15.23;;;6.47;;
72761;SDS011;60886;55.034;73.150;2022-09-01T13:50:47;13.27;;;6.70;;
72761;SDS011;60886;55.034;73.150;2022-09-01T13:53:17;13.35;;;6.78;;
72761;SDS011;60886;55.034;73.150;2022-09-01T13:55:45;13.25;;;6.53;;
72761;SDS011;60886;55.034;73.150;2022-09-01T13:58:12;13.80;;;6.50;;
72761;SDS011;60886;55.034;73.150;2022-09-01T14:00:41;13.00;;;7.35;;
72761;SDS011;60886;55.034;73.150;2022-09-01T14:03:11;14.48;;;7.18;;
72761;SDS011;60886;55.034;73.150;2022-09-01T14:05:41;13.63;;;6.65;;
72761;SDS011;60886;55.034;73.150;2022-09-01T14:08:09;11.88;;;6.53;;
72761;SDS011;60886;55.034;73.150;2022-09-01T14:10:44;13.77;;;6.72;;
72761;SDS011;60886;55.034;73.150;2022-09-01T14:13:13;13.30;;;6.90;;
72761;SDS011;60886;55.034;73.150;2022-09-01T14:15:41;13.43;;;7.63;;
72761;SDS011;60886;55.034;73.150;2022-09-01T14:18:13;13.35;;;6.38;;
72761;SDS011;60886;55.034;73.150;2022-09-01T14:20:42;13.23;;;6.93;;
72761;SDS011;60886;55.034;73.150;2022-09-01T14:23:10;15.50;;;6.97;;
72761;SDS011;60886;55.034;73.150;2022-09-01T14:25:43;14.15;;;7.57;;
72761;SDS011;60886;55.034;73.150;2022-09-01T14:28:11;12.52;;;6.68;;
72761;SDS011;60886;55.034;73.150;2022-09-01T14:30:38;17.00;;;7.72;;
72761;SDS011;60886;55.034;73.150;2022-09-01T14:33:07;17.08;;;7.35;;
72761;SDS011;60886;55.034;73.150;2022-09-01T14:35:36;13.95;;;7.35;;
72761;SDS011;60886;55.034;73.150;2022-09-01T14:38:08;15.50;;;7.60;;
72761;SDS011;60886;55.034;73.150;2022-09-01T14:40:37;15.60;;;7.80;;
72761;SDS011;60886;55.034;73.150;2022-09-01T14:43:06;17.45;;;7.95;;
72761;SDS011;60886;55.034;73.150;2022-09-01T14:45:40;15.43;;;7.40;;
72761;SDS011;60886;55.034;73.150;2022-09-01T14:48:10;17.50;;;7.90;;
72761;SDS011;60886;55.034;73.150;2022-09-01T14:50:40;14.43;;;7.82;;
72761;SDS011;60886;55.034;73.150;2022-09-01T14:53:12;17.65;;;7.68;;
72761;SDS011;60886;55.034;73.150;2022-09-01T14:55:41;20.40;;;7.90;;
72761;SDS011;60886;55.034;73.150;2022-09-01T14:58:17;16.00;;;7.32;;
72761;SDS011;60886;55.034;73.150;2022-09-01T15:00:43;18.77;;;7.85;;
72761;SDS011;60886;55.034;73.150;2022-09-01T15:03:09;27.08;;;12.55;;
72761;SDS011;60886;55.034;73.150;2022-09-01T15:05:36;20.67;;;8.85;;
72761;SDS011;60886;55.034;73.150;2022-09-01T15:08:03;20.55;;;8.43;;
72761;SDS011;60886;55.034;73.150;2022-09-01T15:10:29;18.77;;;8.80;;
72761;SDS011;60886;55.034;73.150;2022-09-01T15:12:57;20.88;;;8.85;;
72761;SDS011;60886;55.034;73.150;2022-09-01T15:15:31;21.23;;;9.27;;
72761;SDS011;60886;55.034;73.150;2022-09-01T15:17:58;23.27;;;9.57;;
72761;SDS011;60886;55.034;73.150;2022-09-01T15:20:25;21.25;;;8.77;;
72761;SDS011;60886;55.034;73.150;2022-09-01T15:23:15;17.70;;;8.88;;
72761;SDS011;60886;55.034;73.150;2022-09-01T15:25:44;17.45;;;9.13;;
72761;SDS011;60886;55.034;73.150;2022-09-01T15:28:11;17.02;;;7.43;;
72761;SDS011;60886;55.034;73.150;2022-09-01T15:30:39;14.13;;;7.00;;
72761;SDS011;60886;55.034;73.150;2022-09-01T15:33:15;12.88;;;6.50;;
72761;SDS011;60886;55.034;73.150;2022-09-01T15:35:47;11.70;;;6.10;;
72761;SDS011;60886;55.034;73.150;2022-09-01T15:38:14;12.65;;;6.43;;
72761;SDS011;60886;55.034;73.150;2022-09-01T15:40:51;29.33;;;16.75;;
72761;SDS011;60886;55.034;73.150;2022-09-01T15:43:17;13.57;;;6.93;;
72761;SDS011;60886;55.034;73.150;2022-09-01T15:45:44;12.80;;;5.90;;
72761;SDS011;60886;55.034;73.150;2022-09-01T15:48:16;12.48;;;6.03;;
72761;SDS011;60886;55.034;73.150;2022-09-01T15:50:43;12.32;;;6.22;;
72761;SDS011;60886;55.034;73.150;2022-09-01T15:53:17;11.40;;;5.80;;
72761;SDS011;60886;55.034;73.150;2022-09-01T15:55:53;10.90;;;5.15;;
72761;SDS011;60886;55.034;73.150;2022-09-01T15:58:19;10.73;;;5.80;;
72761;SDS011;60886;55.034;73.150;2022-09-01T16:00:46;10.60;;;5.20;;
72761;SDS011;60886;55.034;73.150;2022-09-01T16:03:15;9.57;;;5.00;;
72761;SDS011;60886;55.034;73.150;2022-09-01T16:05:42;10.27;;;5.00;;
72761;SDS011;60886;55.034;73.150;2022-09-01T16:08:13;11.57;;;5.20;;
72761;SDS011;60886;55.034;73.150;2022-09-01T16:10:44;9.27;;;4.65;;
72761;SDS011;60886;55.034;73.150;2022-09-01T16:13:16;10.70;;;4.93;;
72761;SDS011;60886;55.034;73.150;2022-09-01T16:15:45;10.40;;;5.03;;
72761;SDS011;60886;55.034;73.150;2022-09-01T16:18:27;13.90;;;6.68;;
72761;SDS011;60886;55.034;73.150;2022-09-01T16:21:28;10.57;;;5.05;;
72761;SDS011;60886;55.034;73.150;2022-09-01T16:24:06;10.68;;;4.93;;
72761;SDS011;60886;55.034;73.150;2022-09-01T16:26:36;9.88;;;4.97;;
72761;SDS011;60886;55.034;73.150;2022-09-01T16:29:06;10.90;;;4.70;;
72761;SDS011;60886;55.034;73.150;2022-09-01T16:31:36;12.25;;;5.57;;
72761;SDS011;60886;55.034;73.150;2022-09-01T16:34:07;11.02;;;5.55;;
72761;SDS011;60886;55.034;73.150;2022-09-01T16:36:48;12.70;;;5.70;;
72761;SDS011;60886;55.034;73.150;2022-09-01T16:42:15;11.48;;;5.10;;
72761;SDS011;60886;55.034;73.150;2022-09-01T16:56:12;13.55;;;5.35;;
72761;SDS011;60886;55.034;73.150;2022-09-01T16:58:50;10.68;;;4.68;;